sensor_id;sensor_type;location;lat;lon;timestamp;P1;durP1;ratioP1;P2;durP2;ratioP2
35257;SDS011;21385;50.878;8.050;2023-06-14T00:01:16;6.20;;;3.90;;
35257;SDS011;21385;50.878;8.050;2023-06-14T00:03:45;5.53;;;3.67;;
35257;SDS011;21385;50.878;8.050;2023-06-14T00:06:12;6.95;;;5.07;;
35257;SDS011;21385;50.878;8.050;2023-06-14T00:08:38;8.63;;;4.90;;
35257;SDS011;21385;50.878;8.050;2023-06-14T00:11:04;7.38;;;5.28;;
35257;SDS011;21385;50.878;8.050;2023-06-14T00:13:30;6.32;;;4.10;;
35257;SDS011;21385;50.878;8.050;2023-06-14T00:15:56;8.68;;;4.00;;
35257;SDS011;21385;50.878;8.050;2023-06-14T00:18:22;9.50;;;3.42;;
35257;SDS011;21385;50.878;8.050;2023-06-14T00:20:49;3.97;;;3.60;;
35257;SDS011;21385;50.878;8.050;2023-06-14T00:23:15;6.20;;;2.60;;
35257;SDS011;21385;50.878;8.050;2023-06-14T00:25:41;5.22;;;3.53;;
35257;SDS011;21385;50.878;8.050;2023-06-14T00:28:06;4.13;;;2.53;;
35257;SDS011;21385;50.878;8.050;2023-06-14T00:30:32;5.10;;;3.17;;
35257;SDS011;21385;50.878;8.050;2023-06-14T00:32:58;6.15;;;3.83;;
35257;SDS011;21385;50.878;8.050;2023-06-14T00:35:23;3.40;;;2.75;;
35257;SDS011;21385;50.878;8.050;2023-06-14T00:37:50;8.02;;;2.92;;
35257;SDS011;21385;50.878;8.050;2023-06-14T00:40:16;6.03;;;1.95;;
35257;SDS011;21385;50.878;8.050;2023-06-14T00:42:41;2.40;;;2.20;;
35257;SDS011;21385;50.878;8.050;2023-06-14T00:45:07;2.65;;;1.95;;
35257;SDS011;21385;50.878;8.050;2023-06-14T00:47:34;5.88;;;1.85;;
35257;SDS011;21385;50.878;8.050;2023-06-14T00:50:02;3.25;;;1.42;;
35257;SDS011;21385;50.878;8.050;2023-06-14T00:52:30;2.38;;;1.73;;
35257;SDS011;21385;50.878;8.050;2023-06-14T00:54:57;2.15;;;1.85;;
35257;SDS011;21385;50.878;8.050;2023-06-14T00:57:23;2.58;;;1.65;;
35257;SDS011;21385;50.878;8.050;2023-06-14T00:59:49;3.15;;;1.70;;
35257;SDS011;21385;50.878;8.050;2023-06-14T01:02:15;1.85;;;1.50;;
35257;SDS011;21385;50.878;8.050;2023-06-14T01:04:42;1.80;;;1.70;;
35257;SDS011;21385;50.878;8.050;2023-06-14T01:15:40;3.15;;;1.90;;
35257;SDS011;21385;50.878;8.050;2023-06-14T01:18:08;4.55;;;2.75;;
35257;SDS011;21385;50.878;8.050;2023-06-14T01:20:42;3.35;;;2.47;;
35257;SDS011;21385;50.878;8.050;2023-06-14T01:23:10;7.55;;;3.22;;
35257;SDS011;21385;50.878;8.050;2023-06-14T01:25:40;6.43;;;3.35;;
35257;SDS011;21385;50.878;8.050;2023-06-14T01:28:09;6.10;;;3.40;;
35257;SDS011;21385;50.878;8.050;2023-06-14T01:30:38;6.25;;;3.33;;
35257;SDS011;21385;50.878;8.050;2023-06-14T01:33:09;3.33;;;2.78;;
35257;SDS011;21385;50.878;8.050;2023-06-14T01:35:39;3.05;;;2.58;;
35257;SDS011;21385;50.878;8.050;2023-06-14T01:38:09;4.00;;;2.70;;
35257;SDS011;21385;50.878;8.050;2023-06-14T01:40:35;1.80;;;1.70;;
35257;SDS011;21385;50.878;8.050;2023-06-14T01:43:01;3.38;;;2.10;;
35257;SDS011;21385;50.878;8.050;2023-06-14T01:45:28;3.90;;;3.25;;
35257;SDS011;21385;50.878;8.050;2023-06-14T01:47:55;3.00;;;2.22;;
35257;SDS011;21385;50.878;8.050;2023-06-14T01:50:20;4.50;;;3.00;;
35257;SDS011;21385;50.878;8.050;2023-06-14T01:52:46;3.30;;;1.83;;
35257;SDS011;21385;50.878;8.050;2023-06-14T01:55:12;2.50;;;2.00;;
35257;SDS011;21385;50.878;8.050;2023-06-14T01:57:37;2.67;;;1.63;;
35257;SDS011;21385;50.878;8.050;2023-06-14T02:00:04;3.45;;;1.73;;
35257;SDS011;21385;50.878;8.050;2023-06-14T02:02:35;3.75;;;1.73;;
35257;SDS011;21385;50.878;8.050;2023-06-14T02:05:01;1.95;;;1.70;;
35257;SDS011;21385;50.878;8.050;2023-06-14T02:07:26;3.15;;;2.15;;
35257;SDS011;21385;50.878;8.050;2023-06-14T02:09:52;1.55;;;1.30;;
35257;SDS011;21385;50.878;8.050;2023-06-14T02:12:17;4.13;;;1.63;;
35257;SDS011;21385;50.878;8.050;2023-06-14T02:14:43;2.00;;;1.45;;
35257;SDS011;21385;50.878;8.050;2023-06-14T02:17:09;4.28;;;1.70;;
35257;SDS011;21385;50.878;8.050;2023-06-14T02:19:35;1.45;;;1.33;;
35257;SDS011;21385;50.878;8.050;2023-06-14T02:22:01;1.67;;;1.50;;
35257;SDS011;21385;50.878;8.050;2023-06-14T02:24:26;2.75;;;2.08;;
35257;SDS011;21385;50.878;8.050;2023-06-14T02:26:52;2.22;;;1.88;;
35257;SDS011;21385;50.878;8.050;2023-06-14T02:29:17;5.38;;;2.10;;
35257;SDS011;21385;50.878;8.050;2023-06-14T02:31:43;3.35;;;2.20;;
35257;SDS011;21385;50.878;8.050;2023-06-14T02:34:08;3.70;;;2.20;;
35257;SDS011;21385;50.878;8.050;2023-06-14T02:36:35;2.80;;;1.75;;
35257;SDS011;21385;50.878;8.050;2023-06-14T02:39:06;4.90;;;2.38;;
35257;SDS011;21385;50.878;8.050;2023-06-14T02:41:35;3.15;;;2.30;;
35257;SDS011;21385;50.878;8.050;2023-06-14T02:44:01;2.78;;;1.60;;
35257;SDS011;21385;50.878;8.050;2023-06-14T02:46:27;3.80;;;1.98;;
35257;SDS011;21385;50.878;8.050;2023-06-14T02:48:53;2.83;;;2.10;;
35257;SDS011;21385;50.878;8.050;2023-06-14T02:51:18;4.47;;;2.28;;
35257;SDS011;21385;50.878;8.050;2023-06-14T02:53:44;7.45;;;2.35;;
35257;SDS011;21385;50.878;8.050;2023-06-14T02:56:09;4.88;;;2.28;;
35257;SDS011;21385;50.878;8.050;2023-06-14T02:58:36;3.33;;;1.90;;
35257;SDS011;21385;50.878;8.050;2023-06-14T03:01:02;2.03;;;1.70;;
35257;SDS011;21385;50.878;8.050;2023-06-14T03:03:30;2.40;;;1.92;;
35257;SDS011;21385;50.878;8.050;2023-06-14T03:05:56;5.25;;;2.53;;
35257;SDS011;21385;50.878;8.050;2023-06-14T03:08:29;3.08;;;2.30;;
35257;SDS011;21385;50.878;8.050;2023-06-14T03:10:56;3.65;;;2.35;;
35257;SDS011;21385;50.878;8.050;2023-06-14T03:13:22;3.95;;;2.38;;
35257;SDS011;21385;50.878;8.050;2023-06-14T03:15:48;2.30;;;1.70;;
35257;SDS011;21385;50.878;8.050;2023-06-14T03:18:17;3.33;;;1.92;;
35257;SDS011;21385;50.878;8.050;2023-06-14T03:20:42;4.05;;;2.58;;
35257;SDS011;21385;50.878;8.050;2023-06-14T03:23:10;2.63;;;2.40;;
35257;SDS011;21385;50.878;8.050;2023-06-14T03:25:37;5.68;;;2.20;;
35257;SDS011;21385;50.878;8.050;2023-06-14T03:28:03;3.10;;;2.10;;
35257;SDS011;21385;50.878;8.050;2023-06-14T03:30:30;3.67;;;2.40;;
35257;SDS011;21385;50.878;8.050;2023-06-14T03:32:56;3.42;;;2.38;;
35257;SDS011;21385;50.878;8.050;2023-06-14T03:35:22;2.60;;;2.25;;
35257;SDS011;21385;50.878;8.050;2023-06-14T03:37:48;3.47;;;2.30;;
35257;SDS011;21385;50.878;8.050;2023-06-14T03:40:15;5.32;;;2.65;;
35257;SDS011;21385;50.878;8.050;2023-06-14T03:42:41;2.92;;;1.85;;
35257;SDS011;21385;50.878;8.050;2023-06-14T03:45:07;3.35;;;2.45;;
35257;SDS011;21385;50.878;8.050;2023-06-14T03:47:33;9.57;;;2.55;;
35257;SDS011;21385;50.878;8.050;2023-06-14T03:49:59;5.03;;;2.58;;
35257;SDS011;21385;50.878;8.050;2023-06-14T03:52:26;3.70;;;2.28;;
35257;SDS011;21385;50.878;8.050;2023-06-14T03:54:51;5.97;;;2.90;;
35257;SDS011;21385;50.878;8.050;2023-06-14T03:57:18;4.03;;;2.45;;
35257;SDS011;21385;50.878;8.050;2023-06-14T03:59:43;3.47;;;2.45;;
35257;SDS011;21385;50.878;8.050;2023-06-14T04:02:09;4.13;;;2.70;;
35257;SDS011;21385;50.878;8.050;2023-06-14T04:04:35;3.85;;;2.70;;
35257;SDS011;21385;50.878;8.050;2023-06-14T04:07:01;3.63;;;2.40;;
35257;SDS011;21385;50.878;8.050;2023-06-14T04:09:28;6.57;;;2.72;;
35257;SDS011;21385;50.878;8.050;2023-06-14T04:11:56;4.45;;;2.72;;
35257;SDS011;21385;50.878;8.050;2023-06-14T04:14:22;10.55;;;3.20;;
35257;SDS011;21385;50.878;8.050;2023-06-14T04:16:48;5.45;;;2.95;;
35257;SDS011;21385;50.878;8.050;2023-06-14T04:19:14;6.07;;;3.10;;
35257;SDS011;21385;50.878;8.050;2023-06-14T04:21:40;14.23;;;3.42;;
35257;SDS011;21385;50.878;8.050;2023-06-14T04:24:06;4.95;;;2.88;;
35257;SDS011;21385;50.878;8.050;2023-06-14T04:26:37;3.47;;;2.40;;
35257;SDS011;21385;50.878;8.050;2023-06-14T04:29:04;5.90;;;3.15;;
35257;SDS011;21385;50.878;8.050;2023-06-14T04:31:30;5.57;;;2.65;;
35257;SDS011;21385;50.878;8.050;2023-06-14T04:33:59;10.73;;;3.08;;
35257;SDS011;21385;50.878;8.050;2023-06-14T04:36:25;6.78;;;2.95;;
35257;SDS011;21385;50.878;8.050;2023-06-14T04:38:53;3.92;;;2.65;;
35257;SDS011;21385;50.878;8.050;2023-06-14T04:41:20;2.65;;;2.35;;
35257;SDS011;21385;50.878;8.050;2023-06-14T04:43:48;4.55;;;2.83;;
35257;SDS011;21385;50.878;8.050;2023-06-14T04:46:14;2.78;;;1.95;;
35257;SDS011;21385;50.878;8.050;2023-06-14T04:48:40;2.88;;;2.25;;
35257;SDS011;21385;50.878;8.050;2023-06-14T04:51:08;3.13;;;2.10;;
35257;SDS011;21385;50.878;8.050;2023-06-14T04:53:34;5.78;;;2.90;;
35257;SDS011;21385;50.878;8.050;2023-06-14T04:56:00;3.00;;;2.05;;
35257;SDS011;21385;50.878;8.050;2023-06-14T04:58:26;5.53;;;2.45;;
35257;SDS011;21385;50.878;8.050;2023-06-14T05:00:53;6.60;;;2.30;;
35257;SDS011;21385;50.878;8.050;2023-06-14T05:03:20;4.68;;;2.72;;
35257;SDS011;21385;50.878;8.050;2023-06-14T05:05:46;5.97;;;3.15;;
35257;SDS011;21385;50.878;8.050;2023-06-14T05:08:12;7.28;;;2.05;;
35257;SDS011;21385;50.878;8.050;2023-06-14T05:10:38;11.98;;;2.67;;
35257;SDS011;21385;50.878;8.050;2023-06-14T05:13:04;5.43;;;2.85;;
35257;SDS011;21385;50.878;8.050;2023-06-14T05:15:30;2.97;;;2.15;;
35257;SDS011;21385;50.878;8.050;2023-06-14T05:17:55;3.47;;;2.22;;
35257;SDS011;21385;50.878;8.050;2023-06-14T05:20:22;12.10;;;2.45;;
35257;SDS011;21385;50.878;8.050;2023-06-14T05:22:49;2.50;;;1.80;;
35257;SDS011;21385;50.878;8.050;2023-06-14T05:25:17;3.75;;;1.90;;
35257;SDS011;21385;50.878;8.050;2023-06-14T05:27:43;3.70;;;1.90;;
35257;SDS011;21385;50.878;8.050;2023-06-14T05:30:09;1.80;;;1.48;;
35257;SDS011;21385;50.878;8.050;2023-06-14T05:32:35;3.63;;;1.38;;
35257;SDS011;21385;50.878;8.050;2023-06-14T05:35:01;0.77;;;0.77;;
35257;SDS011;21385;50.878;8.050;2023-06-14T05:37:27;3.67;;;1.23;;
35257;SDS011;21385;50.878;8.050;2023-06-14T05:39:53;2.53;;;1.10;;
35257;SDS011;21385;50.878;8.050;2023-06-14T05:42:19;2.38;;;1.55;;
35257;SDS011;21385;50.878;8.050;2023-06-14T05:44:45;1.50;;;1.25;;
35257;SDS011;21385;50.878;8.050;2023-06-14T05:47:11;1.05;;;0.98;;
35257;SDS011;21385;50.878;8.050;2023-06-14T05:49:37;1.80;;;1.10;;
35257;SDS011;21385;50.878;8.050;2023-06-14T05:52:03;1.38;;;1.23;;
35257;SDS011;21385;50.878;8.050;2023-06-14T05:54:30;2.97;;;1.50;;
35257;SDS011;21385;50.878;8.050;2023-06-14T05:56:55;2.63;;;1.20;;
35257;SDS011;21385;50.878;8.050;2023-06-14T05:59:26;1.03;;;0.67;;
35257;SDS011;21385;50.878;8.050;2023-06-14T06:01:52;1.80;;;1.00;;
35257;SDS011;21385;50.878;8.050;2023-06-14T06:04:17;2.22;;;1.50;;
35257;SDS011;21385;50.878;8.050;2023-06-14T06:06:43;1.33;;;1.10;;
35257;SDS011;21385;50.878;8.050;2023-06-14T06:09:10;2.50;;;1.20;;
35257;SDS011;21385;50.878;8.050;2023-06-14T06:11:35;1.42;;;1.05;;
35257;SDS011;21385;50.878;8.050;2023-06-14T06:14:01;1.85;;;1.30;;
35257;SDS011;21385;50.878;8.050;2023-06-14T06:16:27;6.65;;;1.17;;
35257;SDS011;21385;50.878;8.050;2023-06-14T06:18:52;3.60;;;1.50;;
35257;SDS011;21385;50.878;8.050;2023-06-14T06:21:18;2.60;;;1.08;;
35257;SDS011;21385;50.878;8.050;2023-06-14T06:23:44;2.22;;;0.93;;
35257;SDS011;21385;50.878;8.050;2023-06-14T06:26:09;2.78;;;1.42;;
35257;SDS011;21385;50.878;8.050;2023-06-14T06:28:35;0.70;;;0.70;;
35257;SDS011;21385;50.878;8.050;2023-06-14T06:31:00;1.60;;;0.82;;
35257;SDS011;21385;50.878;8.050;2023-06-14T06:33:26;2.65;;;1.40;;
35257;SDS011;21385;50.878;8.050;2023-06-14T06:35:51;1.27;;;1.02;;
35257;SDS011;21385;50.878;8.050;2023-06-14T06:38:17;1.13;;;0.98;;
35257;SDS011;21385;50.878;8.050;2023-06-14T06:40:44;3.05;;;0.88;;
35257;SDS011;21385;50.878;8.050;2023-06-14T06:43:09;1.95;;;0.68;;
35257;SDS011;21385;50.878;8.050;2023-06-14T06:45:38;1.05;;;0.95;;
35257;SDS011;21385;50.878;8.050;2023-06-14T06:48:04;3.78;;;1.08;;
35257;SDS011;21385;50.878;8.050;2023-06-14T06:50:30;0.80;;;0.80;;
35257;SDS011;21385;50.878;8.050;2023-06-14T06:52:56;0.60;;;0.60;;
35257;SDS011;21385;50.878;8.050;2023-06-14T06:55:22;1.38;;;0.98;;
35257;SDS011;21385;50.878;8.050;2023-06-14T06:57:48;1.42;;;1.00;;
35257;SDS011;21385;50.878;8.050;2023-06-14T07:00:14;3.42;;;0.95;;
35257;SDS011;21385;50.878;8.050;2023-06-14T07:02:41;1.13;;;0.90;;
35257;SDS011;21385;50.878;8.050;2023-06-14T07:05:07;1.67;;;1.13;;
35257;SDS011;21385;50.878;8.050;2023-06-14T07:07:33;2.22;;;1.23;;
35257;SDS011;21385;50.878;8.050;2023-06-14T07:09:59;1.88;;;0.82;;
35257;SDS011;21385;50.878;8.050;2023-06-14T07:12:25;0.93;;;0.93;;
35257;SDS011;21385;50.878;8.050;2023-06-14T07:14:51;2.67;;;1.17;;
35257;SDS011;21385;50.878;8.050;2023-06-14T07:17:16;1.63;;;1.30;;
35257;SDS011;21385;50.878;8.050;2023-06-14T07:19:42;2.67;;;1.20;;
35257;SDS011;21385;50.878;8.050;2023-06-14T07:22:08;1.80;;;0.82;;
35257;SDS011;21385;50.878;8.050;2023-06-14T07:24:33;2.05;;;1.35;;
35257;SDS011;21385;50.878;8.050;2023-06-14T07:27:01;3.53;;;0.98;;
35257;SDS011;21385;50.878;8.050;2023-06-14T07:29:28;2.60;;;1.58;;
35257;SDS011;21385;50.878;8.050;2023-06-14T07:31:53;1.30;;;0.93;;
35257;SDS011;21385;50.878;8.050;2023-06-14T07:34:19;2.40;;;0.80;;
35257;SDS011;21385;50.878;8.050;2023-06-14T07:36:44;1.20;;;1.10;;
35257;SDS011;21385;50.878;8.050;2023-06-14T07:39:11;1.15;;;1.05;;
35257;SDS011;21385;50.878;8.050;2023-06-14T07:41:36;6.80;;;0.70;;
35257;SDS011;21385;50.878;8.050;2023-06-14T07:44:02;22.02;;;0.95;;
35257;SDS011;21385;50.878;8.050;2023-06-14T07:46:28;0.55;;;0.55;;
35257;SDS011;21385;50.878;8.050;2023-06-14T07:48:53;1.13;;;0.90;;
35257;SDS011;21385;50.878;8.050;2023-06-14T07:51:19;1.00;;;0.90;;
35257;SDS011;21385;50.878;8.050;2023-06-14T07:53:46;1.02;;;0.90;;
35257;SDS011;21385;50.878;8.050;2023-06-14T07:56:12;0.52;;;0.52;;
35257;SDS011;21385;50.878;8.050;2023-06-14T07:58:38;0.60;;;0.60;;
35257;SDS011;21385;50.878;8.050;2023-06-14T08:01:03;0.90;;;0.70;;
35257;SDS011;21385;50.878;8.050;2023-06-14T08:03:31;0.38;;;0.38;;
35257;SDS011;21385;50.878;8.050;2023-06-14T08:05:57;0.40;;;0.40;;
35257;SDS011;21385;50.878;8.050;2023-06-14T08:08:23;0.90;;;0.70;;
35257;SDS011;21385;50.878;8.050;2023-06-14T08:10:48;0.73;;;0.73;;
35257;SDS011;21385;50.878;8.050;2023-06-14T08:13:14;0.65;;;0.60;;
35257;SDS011;21385;50.878;8.050;2023-06-14T08:15:40;0.60;;;0.60;;
35257;SDS011;21385;50.878;8.050;2023-06-14T08:18:05;0.75;;;0.75;;
35257;SDS011;21385;50.878;8.050;2023-06-14T08:20:31;1.05;;;0.70;;
35257;SDS011;21385;50.878;8.050;2023-06-14T08:22:57;0.47;;;0.47;;
35257;SDS011;21385;50.878;8.050;2023-06-14T08:25:23;0.77;;;0.70;;
35257;SDS011;21385;50.878;8.050;2023-06-14T08:27:48;0.98;;;0.80;;
35257;SDS011;21385;50.878;8.050;2023-06-14T08:30:16;0.60;;;0.60;;
35257;SDS011;21385;50.878;8.050;2023-06-14T08:32:42;1.08;;;0.70;;
35257;SDS011;21385;50.878;8.050;2023-06-14T08:35:08;0.40;;;0.40;;
35257;SDS011;21385;50.878;8.050;2023-06-14T08:37:37;0.40;;;0.40;;
35257;SDS011;21385;50.878;8.050;2023-06-14T08:40:22;0.55;;;0.55;;
35257;SDS011;21385;50.878;8.050;2023-06-14T08:42:51;0.50;;;0.50;;
35257;SDS011;21385;50.878;8.050;2023-06-14T08:45:22;1.87;;;0.87;;
35257;SDS011;21385;50.878;8.050;2023-06-14T08:47:49;3.40;;;0.93;;
35257;SDS011;21385;50.878;8.050;2023-06-14T08:50:20;0.73;;;0.73;;
35257;SDS011;21385;50.878;8.050;2023-06-14T08:52:48;0.80;;;0.77;;
35257;SDS011;21385;50.878;8.050;2023-06-14T08:55:18;1.17;;;0.77;;
35257;SDS011;21385;50.878;8.050;2023-06-14T08:57:45;1.27;;;0.73;;
35257;SDS011;21385;50.878;8.050;2023-06-14T09:00:13;1.08;;;0.70;;
35257;SDS011;21385;50.878;8.050;2023-06-14T09:02:39;0.50;;;0.50;;
35257;SDS011;21385;50.878;8.050;2023-06-14T09:05:11;0.93;;;0.80;;
35257;SDS011;21385;50.878;8.050;2023-06-14T09:07:43;0.80;;;0.47;;
35257;SDS011;21385;50.878;8.050;2023-06-14T09:10:10;4.32;;;0.52;;
35257;SDS011;21385;50.878;8.050;2023-06-14T09:12:37;2.05;;;0.90;;
35257;SDS011;21385;50.878;8.050;2023-06-14T09:15:03;0.70;;;0.50;;
35257;SDS011;21385;50.878;8.050;2023-06-14T09:17:37;1.13;;;0.88;;
35257;SDS011;21385;50.878;8.050;2023-06-14T09:20:07;0.55;;;0.40;;
35257;SDS011;21385;50.878;8.050;2023-06-14T09:22:43;0.95;;;0.82;;
35257;SDS011;21385;50.878;8.050;2023-06-14T09:25:09;0.80;;;0.68;;
35257;SDS011;21385;50.878;8.050;2023-06-14T09:27:35;1.30;;;0.73;;
35257;SDS011;21385;50.878;8.050;2023-06-14T09:30:04;0.77;;;0.77;;
35257;SDS011;21385;50.878;8.050;2023-06-14T09:32:30;0.75;;;0.63;;
35257;SDS011;21385;50.878;8.050;2023-06-14T09:34:56;3.55;;;0.50;;
35257;SDS011;21385;50.878;8.050;2023-06-14T09:37:31;0.95;;;0.70;;
35257;SDS011;21385;50.878;8.050;2023-06-14T09:39:58;1.25;;;0.73;;
35257;SDS011;21385;50.878;8.050;2023-06-14T09:42:24;2.17;;;0.90;;
35257;SDS011;21385;50.878;8.050;2023-06-14T09:44:51;0.45;;;0.45;;
35257;SDS011;21385;50.878;8.050;2023-06-14T09:47:18;0.45;;;0.45;;
35257;SDS011;21385;50.878;8.050;2023-06-14T09:49:45;1.75;;;0.63;;
35257;SDS011;21385;50.878;8.050;2023-06-14T09:52:12;0.60;;;0.60;;
35257;SDS011;21385;50.878;8.050;2023-06-14T09:54:41;1.27;;;0.55;;
35257;SDS011;21385;50.878;8.050;2023-06-14T09:57:19;1.30;;;0.70;;
35257;SDS011;21385;50.878;8.050;2023-06-14T09:59:47;0.98;;;0.80;;
35257;SDS011;21385;50.878;8.050;2023-06-14T10:02:27;1.58;;;0.70;;
35257;SDS011;21385;50.878;8.050;2023-06-14T10:05:28;2.72;;;0.82;;
35257;SDS011;21385;50.878;8.050;2023-06-14T10:10:12;0.68;;;0.45;;
35257;SDS011;21385;50.878;8.050;2023-06-14T10:12:38;1.92;;;0.80;;
35257;SDS011;21385;50.878;8.050;2023-06-14T10:15:04;1.85;;;0.75;;
35257;SDS011;21385;50.878;8.050;2023-06-14T10:23:13;0.80;;;0.80;;
35257;SDS011;21385;50.878;8.050;2023-06-14T10:25:43;1.08;;;0.82;;
35257;SDS011;21385;50.878;8.050;2023-06-14T10:28:19;1.63;;;0.82;;
35257;SDS011;21385;50.878;8.050;2023-06-14T10:33:55;2.92;;;0.80;;
35257;SDS011;21385;50.878;8.050;2023-06-14T10:41:26;1.20;;;1.10;;
35257;SDS011;21385;50.878;8.050;2023-06-14T10:46:39;1.23;;;1.13;;
35257;SDS011;21385;50.878;8.050;2023-06-14T10:49:05;7.43;;;1.10;;
35257;SDS011;21385;50.878;8.050;2023-06-14T10:51:38;0.70;;;0.70;;
35257;SDS011;21385;50.878;8.050;2023-06-14T10:54:14;0.80;;;0.80;;
35257;SDS011;21385;50.878;8.050;2023-06-14T10:56:47;0.73;;;0.70;;
35257;SDS011;21385;50.878;8.050;2023-06-14T10:59:17;0.82;;;0.82;;
35257;SDS011;21385;50.878;8.050;2023-06-14T11:04:23;2.10;;;0.93;;
35257;SDS011;21385;50.878;8.050;2023-06-14T11:07:19;1.85;;;1.05;;
35257;SDS011;21385;50.878;8.050;2023-06-14T11:13:10;0.68;;;0.68;;
35257;SDS011;21385;50.878;8.050;2023-06-14T11:15:36;7.55;;;0.98;;
35257;SDS011;21385;50.878;8.050;2023-06-14T11:18:04;2.17;;;1.10;;
35257;SDS011;21385;50.878;8.050;2023-06-14T11:20:32;0.68;;;0.68;;
35257;SDS011;21385;50.878;8.050;2023-06-14T11:22:59;1.13;;;1.02;;
35257;SDS011;21385;50.878;8.050;2023-06-14T11:25:26;1.67;;;0.98;;
35257;SDS011;21385;50.878;8.050;2023-06-14T11:27:53;1.27;;;1.17;;
35257;SDS011;21385;50.878;8.050;2023-06-14T11:30:20;2.40;;;1.25;;
35257;SDS011;21385;50.878;8.050;2023-06-14T11:32:46;2.15;;;0.75;;
35257;SDS011;21385;50.878;8.050;2023-06-14T11:35:12;1.75;;;0.80;;
35257;SDS011;21385;50.878;8.050;2023-06-14T11:37:39;0.73;;;0.73;;
35257;SDS011;21385;50.878;8.050;2023-06-14T11:40:06;1.13;;;0.85;;
35257;SDS011;21385;50.878;8.050;2023-06-14T11:42:33;0.63;;;0.63;;
35257;SDS011;21385;50.878;8.050;2023-06-14T11:44:59;0.90;;;0.75;;
35257;SDS011;21385;50.878;8.050;2023-06-14T11:47:36;4.43;;;0.70;;
35257;SDS011;21385;50.878;8.050;2023-06-14T11:50:04;1.33;;;1.23;;
35257;SDS011;21385;50.878;8.050;2023-06-14T11:52:32;0.90;;;0.80;;
35257;SDS011;21385;50.878;8.050;2023-06-14T11:54:57;1.38;;;1.00;;
35257;SDS011;21385;50.878;8.050;2023-06-14T11:57:24;0.80;;;0.80;;
35257;SDS011;21385;50.878;8.050;2023-06-14T11:59:50;1.33;;;0.77;;
35257;SDS011;21385;50.878;8.050;2023-06-14T12:02:17;1.60;;;0.98;;
35257;SDS011;21385;50.878;8.050;2023-06-14T12:04:44;0.70;;;0.70;;
35257;SDS011;21385;50.878;8.050;2023-06-14T12:07:12;1.98;;;1.08;;
35257;SDS011;21385;50.878;8.050;2023-06-14T12:09:42;1.37;;;1.00;;
35257;SDS011;21385;50.878;8.050;2023-06-14T12:12:31;6.88;;;0.77;;
35257;SDS011;21385;50.878;8.050;2023-06-14T12:15:02;1.05;;;0.90;;
35257;SDS011;21385;50.878;8.050;2023-06-14T12:17:31;0.90;;;0.85;;
35257;SDS011;21385;50.878;8.050;2023-06-14T12:19:58;0.68;;;0.68;;
35257;SDS011;21385;50.878;8.050;2023-06-14T12:22:23;1.25;;;0.88;;
35257;SDS011;21385;50.878;8.050;2023-06-14T12:24:49;4.25;;;1.00;;
35257;SDS011;21385;50.878;8.050;2023-06-14T12:27:15;1.92;;;0.80;;
35257;SDS011;21385;50.878;8.050;2023-06-14T12:29:43;1.35;;;1.02;;
35257;SDS011;21385;50.878;8.050;2023-06-14T12:32:09;1.20;;;1.13;;
35257;SDS011;21385;50.878;8.050;2023-06-14T12:34:35;1.42;;;0.80;;
35257;SDS011;21385;50.878;8.050;2023-06-14T12:37:01;14.30;;;1.05;;
35257;SDS011;21385;50.878;8.050;2023-06-14T12:39:29;2.28;;;0.82;;
35257;SDS011;21385;50.878;8.050;2023-06-14T12:41:56;1.98;;;1.13;;
35257;SDS011;21385;50.878;8.050;2023-06-14T12:44:22;1.10;;;0.93;;
35257;SDS011;21385;50.878;8.050;2023-06-14T12:46:48;2.17;;;1.00;;
35257;SDS011;21385;50.878;8.050;2023-06-14T12:49:16;1.13;;;1.02;;
35257;SDS011;21385;50.878;8.050;2023-06-14T12:51:41;1.40;;;1.02;;
35257;SDS011;21385;50.878;8.050;2023-06-14T12:54:07;0.60;;;0.60;;
35257;SDS011;21385;50.878;8.050;2023-06-14T12:56:33;2.22;;;1.10;;
35257;SDS011;21385;50.878;8.050;2023-06-14T12:58:58;0.85;;;0.85;;
35257;SDS011;21385;50.878;8.050;2023-06-14T13:01:24;0.80;;;0.80;;
35257;SDS011;21385;50.878;8.050;2023-06-14T13:03:50;0.82;;;0.82;;
35257;SDS011;21385;50.878;8.050;2023-06-14T13:06:20;0.80;;;0.80;;
35257;SDS011;21385;50.878;8.050;2023-06-14T13:08:47;2.50;;;1.02;;
35257;SDS011;21385;50.878;8.050;2023-06-14T13:11:13;1.42;;;0.90;;
35257;SDS011;21385;50.878;8.050;2023-06-14T13:13:38;4.03;;;1.00;;
35257;SDS011;21385;50.878;8.050;2023-06-14T13:16:04;1.55;;;1.23;;
35257;SDS011;21385;50.878;8.050;2023-06-14T13:18:30;1.23;;;1.00;;
35257;SDS011;21385;50.878;8.050;2023-06-14T13:20:55;6.68;;;0.93;;
35257;SDS011;21385;50.878;8.050;2023-06-14T13:23:21;1.75;;;1.40;;
35257;SDS011;21385;50.878;8.050;2023-06-14T13:25:46;2.03;;;0.93;;
35257;SDS011;21385;50.878;8.050;2023-06-14T13:28:14;1.13;;;1.00;;
35257;SDS011;21385;50.878;8.050;2023-06-14T13:30:40;1.00;;;0.82;;
35257;SDS011;21385;50.878;8.050;2023-06-14T13:33:05;1.67;;;0.90;;
35257;SDS011;21385;50.878;8.050;2023-06-14T13:35:31;0.98;;;0.93;;
35257;SDS011;21385;50.878;8.050;2023-06-14T13:37:57;0.80;;;0.80;;
35257;SDS011;21385;50.878;8.050;2023-06-14T13:40:22;3.72;;;0.93;;
35257;SDS011;21385;50.878;8.050;2023-06-14T13:42:48;2.42;;;1.05;;
35257;SDS011;21385;50.878;8.050;2023-06-14T13:45:14;0.68;;;0.68;;
35257;SDS011;21385;50.878;8.050;2023-06-14T13:47:40;0.93;;;0.60;;
35257;SDS011;21385;50.878;8.050;2023-06-14T13:50:06;5.40;;;1.00;;
35257;SDS011;21385;50.878;8.050;2023-06-14T13:52:32;1.98;;;0.88;;
35257;SDS011;21385;50.878;8.050;2023-06-14T13:54:58;2.05;;;1.08;;
35257;SDS011;21385;50.878;8.050;2023-06-14T13:57:23;1.13;;;1.00;;
35257;SDS011;21385;50.878;8.050;2023-06-14T13:59:49;0.90;;;0.90;;
35257;SDS011;21385;50.878;8.050;2023-06-14T14:02:15;9.13;;;1.30;;
35257;SDS011;21385;50.878;8.050;2023-06-14T14:04:41;1.27;;;0.80;;
35257;SDS011;21385;50.878;8.050;2023-06-14T14:07:07;1.65;;;1.05;;
35257;SDS011;21385;50.878;8.050;2023-06-14T14:09:33;3.83;;;1.00;;
35257;SDS011;21385;50.878;8.050;2023-06-14T14:12:00;1.50;;;1.30;;
35257;SDS011;21385;50.878;8.050;2023-06-14T14:14:27;2.42;;;0.95;;
35257;SDS011;21385;50.878;8.050;2023-06-14T14:16:53;2.17;;;0.98;;
35257;SDS011;21385;50.878;8.050;2023-06-14T14:19:22;1.10;;;0.90;;
35257;SDS011;21385;50.878;8.050;2023-06-14T14:21:48;0.82;;;0.82;;
35257;SDS011;21385;50.878;8.050;2023-06-14T14:24:14;1.05;;;0.88;;
35257;SDS011;21385;50.878;8.050;2023-06-14T14:26:40;0.80;;;0.80;;
35257;SDS011;21385;50.878;8.050;2023-06-14T14:29:07;2.53;;;1.27;;
35257;SDS011;21385;50.878;8.050;2023-06-14T14:31:33;1.05;;;1.02;;
35257;SDS011;21385;50.878;8.050;2023-06-14T14:33:59;0.85;;;0.85;;
35257;SDS011;21385;50.878;8.050;2023-06-14T14:36:24;2.17;;;1.10;;
35257;SDS011;21385;50.878;8.050;2023-06-14T14:38:50;1.23;;;1.15;;
35257;SDS011;21385;50.878;8.050;2023-06-14T14:41:16;1.00;;;1.00;;
35257;SDS011;21385;50.878;8.050;2023-06-14T14:43:42;1.35;;;1.25;;
35257;SDS011;21385;50.878;8.050;2023-06-14T14:46:08;1.25;;;1.00;;
35257;SDS011;21385;50.878;8.050;2023-06-14T14:48:33;1.20;;;0.90;;
35257;SDS011;21385;50.878;8.050;2023-06-14T14:50:59;1.15;;;1.05;;
35257;SDS011;21385;50.878;8.050;2023-06-14T14:53:24;2.83;;;1.17;;
35257;SDS011;21385;50.878;8.050;2023-06-14T14:55:50;2.88;;;1.13;;
35257;SDS011;21385;50.878;8.050;2023-06-14T14:58:16;1.33;;;1.23;;
35257;SDS011;21385;50.878;8.050;2023-06-14T15:00:43;1.42;;;1.02;;
35257;SDS011;21385;50.878;8.050;2023-06-14T15:03:09;2.53;;;1.30;;
35257;SDS011;21385;50.878;8.050;2023-06-14T15:05:35;0.90;;;0.90;;
35257;SDS011;21385;50.878;8.050;2023-06-14T15:08:02;1.00;;;0.90;;
35257;SDS011;21385;50.878;8.050;2023-06-14T15:10:28;2.33;;;1.25;;
35257;SDS011;21385;50.878;8.050;2023-06-14T15:12:54;0.77;;;0.77;;
35257;SDS011;21385;50.878;8.050;2023-06-14T15:15:19;1.55;;;1.13;;
35257;SDS011;21385;50.878;8.050;2023-06-14T15:17:47;1.00;;;0.98;;
35257;SDS011;21385;50.878;8.050;2023-06-14T15:20:12;0.90;;;0.90;;